Time;durP1;ratioP1;P1;durP2;ratioP2;P2;SDS_P1;SDS_P2;PMS_P1;PMS_P2;Temp;Humidity;BMP_temperature;BMP_pressure;BME280_temperature;BME280_humidity;BME280_pressure;Samples;Min_cycle;Max_cycle;Signal;HPM_P1;HPM_P2
2024/02/09 00:00:57;;;;;;;68.65;28.02;;;;;;;5.88;100.00;96691.91;4984434;28;20490;-81
2024/02/09 00:03:26;;;;;;;57.65;26.88;;;;;;;5.94;100.00;96707.47;4980177;28;20084;-80
2024/02/09 00:05:53;;;;;;;52.45;24.58;;;;;;;5.89;100.00;96698.94;4978376;28;20547;-80
2024/02/09 00:08:19;;;;;;;60.70;25.42;;;;;;;5.94;100.00;96704.81;4984874;28;20026;-79
2024/02/09 00:10:47;;;;;;;51.88;24.02;;;;;;;5.83;100.00;96685.13;4981494;28;20034;-80
2024/02/09 00:13:16;;;;;;;56.92;23.52;;;;;;;5.86;100.00;96696.44;4985809;28;20030;-78
2024/02/09 00:15:46;;;;;;;61.20;25.67;;;;;;;5.82;100.00;96694.88;4988967;28;20029;-79
2024/02/09 00:18:16;;;;;;;58.30;26.50;;;;;;;5.80;100.00;96696.75;4998324;28;20031;-80
2024/02/09 00:20:45;;;;;;;63.65;28.80;;;;;;;5.75;100.00;96697.97;4973541;28;20461;-79
2024/02/09 00:23:12;;;;;;;58.03;26.02;;;;;;;5.75;100.00;96706.75;4998004;28;20057;-80
2024/02/09 00:25:38;;;;;;;68.68;27.45;;;;;;;5.69;100.00;96699.16;4981669;28;20533;-80
2024/02/09 00:28:05;;;;;;;62.60;25.73;;;;;;;5.65;100.00;96687.03;4989651;28;20026;-80
2024/02/09 00:30:30;;;;;;;63.40;28.58;;;;;;;5.68;100.00;96700.09;4978888;28;20362;-78
2024/02/09 00:32:59;;;;;;;63.50;28.42;;;;;;;5.68;100.00;96686.84;4988500;28;20026;-80
2024/02/09 00:35:28;;;;;;;49.70;22.73;;;;;;;5.65;100.00;96689.66;4982169;28;20373;-81
2024/02/09 00:37:55;;;;;;;58.00;27.88;;;;;;;5.66;100.00;96699.31;4977828;28;20030;-80
2024/02/09 00:40:24;;;;;;;47.88;23.83;;;;;;;5.58;100.00;96669.72;4985287;28;20091;-79
2024/02/09 00:42:53;;;;;;;50.85;22.80;;;;;;;5.60;100.00;96675.78;4981611;28;20054;-79
2024/02/09 00:45:19;;;;;;;45.70;21.58;;;;;;;5.61;100.00;96685.47;4980780;28;20057;-79
2024/02/09 00:47:47;;;;;;;51.10;21.77;;;;;;;5.57;100.00;96697.19;4985060;28;20565;-80
2024/02/09 00:50:17;;;;;;;45.53;20.80;;;;;;;5.59;100.00;96695.31;4984955;28;20505;-80
2024/02/09 00:52:48;;;;;;;39.72;20.42;;;;;;;5.57;100.00;96688.41;4989292;28;20029;-80
2024/02/09 00:55:14;;;;;;;45.88;19.05;;;;;;;5.56;100.00;96676.94;4984690;28;20037;-79
2024/02/09 00:57:40;;;;;;;43.50;19.33;;;;;;;5.56;100.00;96681.38;5001156;28;20041;-80
2024/02/09 01:00:09;;;;;;;42.28;19.98;;;;;;;5.66;100.00;96688.72;4988875;28;20498;-81
2024/02/09 01:02:35;;;;;;;50.55;21.80;;;;;;;5.74;100.00;96683.84;4984286;28;20060;-80
2024/02/09 01:05:00;;;;;;;47.97;21.92;;;;;;;5.66;100.00;96672.78;4989703;28;20069;-80
2024/02/09 01:07:26;;;;;;;48.00;21.65;;;;;;;5.75;100.00;96674.91;5000950;28;20068;-81
2024/02/09 01:09:52;;;;;;;45.95;21.40;;;;;;;5.78;100.00;96672.09;4979139;28;20383;-81
2024/02/09 02:45:01;;;;;;;19.42;8.32;;;;;;;5.54;100.00;96681.44;4997261;28;20021;-80
2024/02/09 02:47:26;;;;;;;18.05;7.32;;;;;;;5.60;100.00;96681.09;4985924;28;20393;-81
2024/02/09 03:06:16;;;;;;;22.23;9.52;;;;;;;5.31;100.00;96698.66;5002402;28;20132;-80
2024/02/09 03:08:41;;;;;;;16.98;7.68;;;;;;;5.24;100.00;96683.16;4991346;28;20064;-80
2024/02/09 03:11:08;;;;;;;19.02;7.75;;;;;;;5.30;100.00;96691.63;4984563;28;20026;-80
2024/02/09 03:13:34;;;;;;;22.10;8.25;;;;;;;5.40;100.00;96698.13;5007983;28;20116;-80
2024/02/09 03:16:00;;;;;;;20.73;10.60;;;;;;;5.34;100.00;96694.97;4988947;28;20112;-80
2024/02/09 03:18:26;;;;;;;21.20;9.30;;;;;;;5.31;100.00;96697.78;4992151;28;20044;-80
2024/02/09 03:20:56;;;;;;;21.17;10.10;;;;;;;5.41;100.00;96702.47;4986355;28;20036;-80
2024/02/09 03:23:22;;;;;;;29.90;10.35;;;;;;;5.41;100.00;96693.69;4989213;28;20112;-79
2024/02/09 03:25:48;;;;;;;22.25;8.65;;;;;;;5.49;100.00;96686.16;4990491;28;20116;-79
2024/02/09 03:28:14;;;;;;;23.17;8.93;;;;;;;5.65;100.00;96697.63;4991189;28;20056;-80
2024/02/09 03:30:40;;;;;;;21.25;9.50;;;;;;;5.61;100.00;96696.09;4985813;28;20037;-80
2024/02/09 03:33:06;;;;;;;21.45;9.05;;;;;;;5.56;100.00;96686.69;4990936;28;20030;-80
2024/02/09 03:35:33;;;;;;;17.13;7.28;;;;;;;5.63;100.00;96693.34;4984625;28;20458;-80
2024/02/09 03:37:59;;;;;;;17.88;8.23;;;;;;;5.70;100.00;96694.69;4988355;28;20109;-80
2024/02/09 03:40:24;;;;;;;16.00;6.80;;;;;;;5.61;100.00;96709.34;4993865;28;20497;-80
2024/02/09 03:42:50;;;;;;;16.88;5.55;;;;;;;5.35;100.00;96699.34;4985976;28;20071;-80
2024/02/09 03:45:16;;;;;;;15.68;6.22;;;;;;;5.28;100.00;96708.56;4986944;28;20068;-80
2024/02/09 03:47:41;;;;;;;17.73;6.00;;;;;;;5.21;100.00;96712.47;4987675;28;20030;-80
2024/02/09 03:50:07;;;;;;;11.48;5.90;;;;;;;5.20;100.00;96713.44;5007638;28;20112;-80
2024/02/09 03:52:33;;;;;;;15.10;6.30;;;;;;;5.12;100.00;96710.31;5003924;28;20073;-81
2024/02/09 03:54:58;;;;;;;12.68;6.07;;;;;;;5.12;100.00;96718.28;4988080;28;20123;-80
2024/02/09 03:57:26;;;;;;;16.25;6.80;;;;;;;5.14;100.00;96733.16;4977208;28;20030;-80
2024/02/09 03:59:52;;;;;;;23.63;8.80;;;;;;;5.08;100.00;96735.25;4979707;28;20506;-81
2024/02/09 04:02:19;;;;;;;18.08;7.40;;;;;;;5.08;100.00;96737.91;4988513;28;20511;-79
2024/02/09 04:04:47;;;;;;;19.55;8.65;;;;;;;5.15;100.00;96740.16;4985542;28;20418;-79
2024/02/09 04:07:13;;;;;;;20.27;7.93;;;;;;;5.19;100.00;96736.44;4979297;28;20030;-80
2024/02/09 04:09:39;;;;;;;26.98;11.32;;;;;;;5.27;100.00;96738.66;4976580;28;20041;-79
2024/02/09 04:12:05;;;;;;;26.10;11.43;;;;;;;5.17;100.00;96748.06;4998027;28;20392;-79
2024/02/09 04:14:31;;;;;;;21.45;11.63;;;;;;;5.13;100.00;96747.34;4995765;28;20575;-80
2024/02/09 04:16:58;;;;;;;22.70;11.10;;;;;;;5.19;100.00;96762.06;5000583;28;20127;-80
2024/02/09 04:19:26;;;;;;;13.55;6.60;;;;;;;5.31;100.00;96762.28;4981758;28;20029;-80
2024/02/09 04:21:53;;;;;;;14.43;8.77;;;;;;;5.34;100.00;96753.28;4981577;28;20116;-81
2024/02/09 04:24:19;;;;;;;16.77;8.60;;;;;;;5.48;100.00;96764.84;4984481;28;20026;-80
2024/02/09 04:26:48;;;;;;;25.27;9.70;;;;;;;5.45;100.00;96756.22;4979307;28;20038;-79
2024/02/09 04:29:15;;;;;;;23.08;9.43;;;;;;;5.57;100.00;96773.28;4984613;28;20038;-80
2024/02/09 04:31:47;;;;;;;28.98;12.45;;;;;;;5.51;100.00;96769.13;4983618;28;20069;-80
2024/02/09 04:34:13;;;;;;;19.23;7.60;;;;;;;5.58;100.00;96781.13;4977017;28;20022;-81
2024/02/09 04:36:42;;;;;;;24.88;10.85;;;;;;;5.52;100.00;96768.19;4985185;28;20065;-81
2024/02/09 04:39:10;;;;;;;26.77;12.77;;;;;;;5.56;100.00;96788.31;5001249;28;20066;-80
2024/02/09 04:41:46;;;;;;;34.92;14.15;;;;;;;5.52;100.00;96781.47;4987960;28;20037;-79
2024/02/09 04:44:12;;;;;;;48.70;14.57;;;;;;;5.32;100.00;96766.63;4982862;28;20030;-80
2024/02/09 04:46:39;;;;;;;23.63;9.75;;;;;;;5.41;100.00;96774.06;4976824;28;20410;-80
2024/02/09 04:49:06;;;;;;;20.02;8.48;;;;;;;5.35;100.00;96795.63;4980011;28;20033;-79
2024/02/09 04:51:36;;;;;;;28.98;9.50;;;;;;;5.30;100.00;96800.31;4993471;28;20452;-80
2024/02/09 04:54:01;;;;;;;22.65;9.55;;;;;;;5.29;100.00;96789.81;4988199;28;20576;-79
2024/02/09 04:56:30;;;;;;;22.30;7.68;;;;;;;5.27;100.00;96783.72;5002731;28;20026;-79
2024/02/09 04:58:56;;;;;;;28.27;9.23;;;;;;;5.24;100.00;96775.94;4989103;28;20034;-80
2024/02/09 05:01:29;;;;;;;32.30;13.50;;;;;;;5.22;100.00;96785.75;5001966;28;20054;-80
2024/02/09 05:03:58;;;;;;;;;;;;;;;5.29;100.00;96784.50;4983343;28;20042;-80
2024/02/09 05:06:24;;;;;;;25.10;10.38;;;;;;;5.27;100.00;96767.81;5007213;28;19919;-80
2024/02/09 05:08:51;;;;;;;27.85;9.32;;;;;;;5.31;100.00;96767.56;4993304;28;20029;-79
2024/02/09 05:11:16;;;;;;;28.13;11.93;;;;;;;5.33;100.00;96759.53;4985390;28;20041;-80
2024/02/09 05:13:42;;;;;;;27.77;12.13;;;;;;;5.36;100.00;96754.06;4982676;28;20030;-78
2024/02/09 05:16:10;;;;;;;24.17;10.75;;;;;;;5.41;100.00;96762.63;4997110;28;20026;-80
2024/02/09 05:18:36;;;;;;;28.50;12.00;;;;;;;5.54;100.00;96763.66;5010771;28;20440;-81
2024/02/09 05:21:02;;;;;;;27.50;12.20;;;;;;;5.56;100.00;96751.19;4994648;28;20091;-77
2024/02/09 05:23:27;;;;;;;27.75;10.82;;;;;;;5.56;100.00;96756.50;4995600;28;20033;-77
2024/02/09 05:25:53;;;;;;;18.88;7.45;;;;;;;5.66;100.00;96749.72;5007849;28;20485;-77
2024/02/09 05:28:20;;;;;;;11.07;6.25;;;;;;;5.91;100.00;96744.78;5032769;28;20040;-77
2024/02/09 05:30:46;;;;;;;25.65;10.13;;;;;;;6.07;100.00;96746.56;5013825;28;20041;-75
2024/02/09 05:33:11;;;;;;;23.73;9.65;;;;;;;6.13;100.00;96738.25;4995360;28;20034;-76
2024/02/09 05:35:39;;;;;;;21.27;8.05;;;;;;;6.18;100.00;96744.19;4995241;28;20038;-76
2024/02/09 05:38:05;;;;;;;26.15;10.63;;;;;;;6.25;100.00;96742.88;4996008;28;20402;-76
2024/02/09 05:40:31;;;;;;;32.13;13.38;;;;;;;6.26;100.00;96731.31;5023700;28;20014;-76
2024/02/09 05:42:57;;;;;;;23.30;9.02;;;;;;;6.38;100.00;96731.47;4990707;28;20029;-77
2024/02/09 05:45:26;;;;;;;19.23;10.18;;;;;;;6.46;100.00;96721.22;5012889;28;20025;-77
2024/02/09 05:47:52;;;;;;;30.83;14.43;;;;;;;6.50;100.00;96713.94;4992451;28;20473;-77
2024/02/09 05:50:20;;;;;;;40.10;13.65;;;;;;;6.37;100.00;96697.00;5032347;28;20021;-76
2024/02/09 05:52:47;;;;;;;48.47;14.77;;;;;;;6.34;100.00;96705.16;5026816;28;20459;-77
2024/02/09 05:55:13;;;;;;;39.40;15.98;;;;;;;6.25;100.00;96703.91;5014545;28;20405;-76
2024/02/09 05:57:38;;;;;;;54.28;16.75;;;;;;;6.24;100.00;96693.38;4997950;28;20029;-76
2024/02/09 06:00:07;;;;;;;71.35;17.77;;;;;;;6.16;100.00;96706.22;4990704;28;20057;-76
2024/02/09 06:02:33;;;;;;;55.22;16.33;;;;;;;6.13;100.00;96690.47;4981445;28;20548;-77
2024/02/09 06:04:59;;;;;;;47.15;15.75;;;;;;;6.37;100.00;96689.03;4998201;28;20029;-77
2024/02/09 06:07:27;;;;;;;56.13;15.73;;;;;;;6.64;100.00;96690.06;4987162;28;20036;-76
2024/02/09 06:09:53;;;;;;;48.88;15.68;;;;;;;6.70;100.00;96681.72;4998275;28;20124;-76
2024/02/09 06:12:18;;;;;;;40.85;18.42;;;;;;;6.72;100.00;96694.91;5005665;28;20105;-77
2024/02/09 06:14:44;;;;;;;41.42;16.95;;;;;;;6.72;100.00;96692.25;4978440;28;20108;-76
2024/02/09 06:17:12;;;;;;;207.55;62.58;;;;;;;6.61;100.00;96695.56;4994916;28;20034;-76
2024/02/09 06:19:39;;;;;;;68.90;23.65;;;;;;;6.72;100.00;96690.47;4994894;28;20092;-76
2024/02/09 06:22:05;;;;;;;51.35;18.05;;;;;;;6.94;100.00;96688.22;5012375;28;20091;-76
2024/02/09 06:24:31;;;;;;;40.20;15.40;;;;;;;7.24;100.00;96673.94;4994216;28;20022;-77
2024/02/09 06:26:57;;;;;;;41.13;14.68;;;;;;;7.76;100.00;96677.66;4994445;28;20029;-77
2024/02/09 06:29:22;;;;;;;60.10;17.40;;;;;;;8.86;100.00;96672.00;5002829;28;20029;-77
2024/02/09 06:31:53;;;;;;;68.97;23.90;;;;;;;10.61;100.00;96668.13;5001927;28;20068;-76
2024/02/09 06:34:18;;;;;;;132.93;39.45;;;;;;;12.92;100.00;96656.38;4984183;28;20041;-76
2024/02/09 06:36:46;;;;;;;144.68;45.88;;;;;;;14.76;85.81;96638.00;4999476;28;20017;-76
2024/02/09 06:39:12;;;;;;;108.20;41.33;;;;;;;15.76;73.30;96631.09;4981164;28;20026;-76
2024/02/09 06:41:37;;;;;;;91.80;32.58;;;;;;;16.83;64.83;96619.47;4995537;28;20029;-76
2024/02/09 06:44:03;;;;;;;101.70;32.83;;;;;;;17.30;59.16;96610.00;5001357;28;20057;-76
2024/02/09 06:46:29;;;;;;;81.82;29.23;;;;;;;17.81;57.22;96618.06;5022805;28;20096;-76
2024/02/09 06:48:56;;;;;;;73.90;29.98;;;;;;;18.19;54.44;96610.44;4983574;28;20053;-78
2024/02/09 06:51:22;;;;;;;60.00;27.83;;;;;;;17.24;55.84;96640.34;4991424;28;20022;-77
2024/02/09 06:53:48;;;;;;;79.65;35.70;;;;;;;17.40;56.51;96645.88;4990065;28;20473;-76
2024/02/09 06:56:14;;;;;;;38.80;16.55;;;;;;;17.94;54.78;96633.84;4989473;28;20037;-78
2024/02/09 06:58:40;;;;;;;50.10;20.08;;;;;;;18.24;54.55;96646.00;4989088;28;20477;-77
2024/02/09 07:01:09;;;;;;;45.97;19.38;;;;;;;18.88;52.80;96643.44;4997571;28;20029;-77
2024/02/09 07:03:35;;;;;;;41.28;14.50;;;;;;;19.26;51.81;96650.03;5006377;28;20032;-76
2024/02/09 07:06:03;;;;;;;31.13;15.07;;;;;;;19.96;49.80;96653.00;5031739;28;20033;-75
2024/02/09 07:08:36;;;;;;;22.13;10.10;;;;;;;20.63;48.04;96648.78;4997239;28;20112;-76
2024/02/09 07:11:03;;;;;;;28.33;12.63;;;;;;;21.43;45.85;96644.63;4985519;28;20028;-77
2024/02/09 07:13:29;;;;;;;25.60;8.73;;;;;;;22.38;44.16;96647.50;4977303;28;20040;-78
2024/02/09 07:15:55;;;;;;;26.63;9.88;;;;;;;23.46;41.54;96637.38;4993700;28;20410;-76
2024/02/09 07:18:20;;;;;;;20.98;7.78;;;;;;;24.48;39.22;96633.88;4994163;28;20037;-76
2024/02/09 07:20:46;;;;;;;24.95;10.15;;;;;;;24.48;38.63;96630.28;4987548;28;20508;-76
2024/02/09 07:23:11;;;;;;;18.70;8.80;;;;;;;24.27;38.00;96634.00;5013355;28;20029;-75
2024/02/09 07:25:37;;;;;;;32.83;10.52;;;;;;;24.55;37.63;96634.72;5013294;28;20404;-77
2024/02/09 07:28:03;;;;;;;20.63;6.90;;;;;;;24.11;38.32;96629.69;5022684;28;20562;-76
2024/02/09 07:30:28;;;;;;;13.82;6.22;;;;;;;24.58;37.83;96626.13;5013533;28;20554;-78
2024/02/09 07:32:54;;;;;;;14.63;5.60;;;;;;;23.86;38.02;96628.44;5009849;28;20092;-80
2024/02/09 07:35:20;;;;;;;13.82;5.60;;;;;;;24.07;38.42;96633.84;4993716;28;20100;-76
2024/02/09 07:37:46;;;;;;;17.98;7.13;;;;;;;23.94;38.81;96630.16;4995025;28;20464;-75
2024/02/09 07:40:16;;;;;;;12.07;5.30;;;;;;;24.21;38.90;96624.69;4996699;28;20021;-77
2024/02/09 07:42:42;;;;;;;13.68;5.95;;;;;;;24.77;37.63;96619.03;4996791;28;20037;-74
2024/02/09 07:45:15;;;;;;;13.30;5.47;;;;;;;24.52;37.74;96628.81;5012817;28;20025;-75
2024/02/09 07:47:44;;;;;;;11.50;4.25;;;;;;;24.43;37.08;96614.47;4997407;28;20021;-76
2024/02/09 07:50:11;;;;;;;12.05;4.63;;;;;;;24.37;37.77;96617.19;5012548;28;20223;-78
2024/02/09 07:52:38;;;;;;;9.02;4.03;;;;;;;24.42;37.52;96609.22;5012757;28;20056;-77
2024/02/09 07:55:06;;;;;;;8.68;3.63;;;;;;;23.69;37.89;96605.22;4996093;28;20032;-76
2024/02/09 07:57:32;;;;;;;10.95;3.92;;;;;;;23.94;37.14;96611.88;5030476;28;20021;-76
2024/02/09 07:59:58;;;;;;;8.25;4.30;;;;;;;23.45;37.59;96601.03;5005632;28;20029;-76
2024/02/09 08:02:25;;;;;;;10.70;4.00;;;;;;;23.38;37.41;96602.03;5029848;28;20390;-76
2024/02/09 08:04:51;;;;;;;11.02;4.03;;;;;;;23.70;37.77;96607.75;4995966;28;20453;-75
2024/02/09 08:07:19;;;;;;;12.15;4.22;;;;;;;23.70;37.49;96609.63;4996159;28;20025;-75
2024/02/09 08:09:45;;;;;;;7.50;3.53;;;;;;;23.79;37.24;96607.59;5030361;28;20083;-75
2024/02/09 08:12:12;;;;;;;7.60;5.00;;;;;;;24.01;37.25;96601.00;5012437;28;20040;-76
2024/02/09 08:14:38;;;;;;;12.60;5.75;;;;;;;24.27;36.22;96585.59;5030212;28;20025;-74
2024/02/09 08:17:05;;;;;;;22.50;9.00;;;;;;;24.50;35.79;96589.91;4995938;28;20036;-75
2024/02/09 08:19:32;;;;;;;11.80;4.57;;;;;;;25.20;34.41;96584.81;4996707;28;20068;-76
2024/02/09 08:21:59;;;;;;;8.68;4.00;;;;;;;25.08;34.24;96583.75;5014006;28;20120;-76
2024/02/09 08:24:25;;;;;;;10.77;5.05;;;;;;;25.54;34.02;96564.63;5016085;28;20014;-76
2024/02/09 08:26:50;;;;;;;6.88;3.05;;;;;;;25.95;32.07;96555.28;5034229;28;20025;-76
2024/02/09 08:29:16;;;;;;;17.92;4.03;;;;;;;26.02;31.56;96564.31;5033742;28;20544;-75
2024/02/09 08:31:41;;;;;;;9.00;3.22;;;;;;;25.59;32.17;96555.78;4993577;28;20037;-76
2024/02/09 08:34:07;;;;;;;15.30;3.35;;;;;;;26.43;31.46;96556.59;5033609;28;20130;-77
2024/02/09 08:36:32;;;;;;;10.23;4.00;;;;;;;25.12;33.37;96562.28;5016207;28;20057;-75
2024/02/09 08:38:58;;;;;;;12.57;3.88;;;;;;;25.93;32.86;96560.13;5015983;28;20033;-76
2024/02/09 08:41:24;;;;;;;12.15;3.58;;;;;;;25.08;33.45;96563.75;4995886;28;20506;-76
2024/02/09 08:43:49;;;;;;;7.45;3.30;;;;;;;24.31;33.12;96546.91;4996426;28;20033;-76
2024/02/09 08:46:15;;;;;;;7.68;3.10;;;;;;;24.25;33.05;96537.66;5006250;28;20072;-75
2024/02/09 08:48:41;;;;;;;16.02;3.70;;;;;;;24.35;33.23;96540.00;5002204;28;20029;-76
2024/02/09 08:51:07;;;;;;;10.27;3.78;;;;;;;24.46;33.89;96537.50;4996053;28;20040;-76
2024/02/09 08:53:34;;;;;;;4.47;2.50;;;;;;;25.07;31.42;96532.78;4979742;28;20073;-76
2024/02/09 08:56:00;;;;;;;16.58;4.10;;;;;;;25.76;30.93;96533.19;4996232;28;20055;-76
2024/02/09 08:58:25;;;;;;;9.32;4.80;;;;;;;26.64;31.31;96537.06;4995902;28;20116;-76
2024/02/09 09:00:51;;;;;;;7.20;4.07;;;;;;;27.52;30.71;96540.69;4995871;28;20121;-74
2024/02/09 09:03:17;;;;;;;7.22;4.30;;;;;;;26.66;29.90;96540.44;5013319;28;20490;-75
2024/02/09 09:05:47;;;;;;;17.73;5.97;;;;;;;26.52;30.70;96540.75;4996069;28;20156;-76
2024/02/09 09:08:13;;;;;;;11.40;4.20;;;;;;;26.47;30.76;96546.88;5013481;28;20123;-76
2024/02/09 09:10:39;;;;;;;8.75;5.38;;;;;;;27.01;30.90;96548.28;4997244;28;20026;-76
2024/02/09 09:13:10;;;;;;;8.40;3.28;;;;;;;26.86;30.62;96551.31;5012280;28;20163;-75
2024/02/09 09:15:43;;;;;;;6.95;3.15;;;;;;;26.50;30.47;96551.06;5002953;28;20034;-75
2024/02/09 09:18:09;;;;;;;11.88;6.30;;;;;;;25.66;31.11;96537.41;4980076;28;20033;-76
2024/02/09 09:20:35;;;;;;;10.35;5.03;;;;;;;25.30;31.62;96535.97;4995602;28;20092;-76
2024/02/09 09:23:01;;;;;;;7.97;2.95;;;;;;;25.19;30.86;96524.81;5011345;28;20104;-76
2024/02/09 09:25:29;;;;;;;16.23;3.58;;;;;;;25.17;30.92;96543.31;4998608;28;20131;-74
2024/02/09 09:27:56;;;;;;;7.50;3.55;;;;;;;24.11;31.79;96542.25;5015462;28;20029;-75
2024/02/09 09:30:22;;;;;;;9.10;4.05;;;;;;;23.61;32.76;96542.56;4998849;28;20035;-75
2024/02/09 09:32:47;;;;;;;10.02;3.85;;;;;;;23.75;32.97;96547.03;5002851;28;20025;-76
2024/02/09 09:35:14;;;;;;;11.98;3.83;;;;;;;24.63;31.64;96537.97;4995222;28;20033;-75
2024/02/09 09:37:40;;;;;;;9.23;4.43;;;;;;;25.85;30.81;96531.06;5014268;28;20037;-75
2024/02/09 09:40:08;;;;;;;11.00;4.10;;;;;;;25.91;30.67;96530.19;5018148;28;20022;-76
2024/02/09 09:42:35;;;;;;;9.90;3.72;;;;;;;25.23;30.63;96542.47;4994747;28;20057;-76
2024/02/09 09:45:07;;;;;;;5.03;3.40;;;;;;;25.20;31.44;96543.75;5012664;28;20022;-76
2024/02/09 09:47:32;;;;;;;;;;;;;;;26.13;30.17;96548.03;4979948;28;20037;-76
2024/02/09 09:49:59;;;;;;;7.72;3.13;;;;;;;27.12;29.70;96540.16;5011440;28;19913;-76
2024/02/09 09:52:31;;;;;;;5.18;2.70;;;;;;;27.23;28.72;96539.44;5013045;28;20021;-75
2024/02/09 09:55:00;;;;;;;8.40;2.90;;;;;;;26.64;28.92;96536.25;4991982;28;20472;-76
2024/02/09 09:57:26;;;;;;;7.45;3.25;;;;;;;24.87;30.85;96537.44;4978777;28;20033;-75
2024/02/09 09:59:52;;;;;;;6.47;4.10;;;;;;;23.23;33.12;96545.63;4998233;28;20025;-75
2024/02/09 10:02:18;;;;;;;9.73;3.42;;;;;;;22.55;33.98;96538.03;5014476;28;20054;-74
2024/02/09 10:04:45;;;;;;;8.07;3.35;;;;;;;22.46;34.39;96541.09;5003683;28;20052;-75
2024/02/09 10:07:15;;;;;;;6.07;3.03;;;;;;;23.19;33.44;96527.13;4984973;28;20421;-75
2024/02/09 10:09:44;;;;;;;6.22;3.80;;;;;;;22.71;34.25;96533.41;4997571;28;20081;-76
2024/02/09 10:12:10;;;;;;;6.18;3.72;;;;;;;22.52;34.96;96521.22;5014384;28;20025;-76
2024/02/09 10:14:40;;;;;;;11.63;3.25;;;;;;;22.70;34.13;96535.31;5031755;28;20030;-74
2024/02/09 10:17:06;;;;;;;4.93;2.95;;;;;;;22.67;34.18;96513.88;5014581;28;20030;-75
2024/02/09 10:19:35;;;;;;;9.30;3.40;;;;;;;24.09;33.07;96505.19;4981406;28;20099;-75
2024/02/09 10:22:01;;;;;;;4.05;2.45;;;;;;;25.39;30.26;96486.44;4994217;28;20516;-76
2024/02/09 10:24:26;;;;;;;7.72;4.70;;;;;;;26.51;30.11;96486.94;4994355;28;20054;-75
2024/02/09 10:26:52;;;;;;;9.15;3.25;;;;;;;27.04;29.55;96471.78;5012047;28;20032;-75
2024/02/09 10:29:18;;;;;;;7.03;3.53;;;;;;;26.73;29.11;96466.31;4999435;28;20029;-75
2024/02/09 10:31:45;;;;;;;6.82;2.97;;;;;;;26.37;29.50;96455.97;4977917;28;20578;-77
2024/02/09 10:34:12;;;;;;;8.57;3.20;;;;;;;25.41;30.60;96451.50;4978084;28;20390;-76
2024/02/09 10:36:40;;;;;;;7.93;3.22;;;;;;;25.33;29.94;96458.88;4994049;28;20044;-75
2024/02/09 10:39:07;;;;;;;6.63;3.05;;;;;;;25.97;29.69;96443.50;5003765;28;20489;-76
2024/02/09 10:41:35;;;;;;;8.23;3.72;;;;;;;26.82;28.66;96441.16;4996988;28;20124;-76
2024/02/09 10:44:01;;;;;;;7.38;3.65;;;;;;;27.34;28.96;96419.75;4999949;28;20505;-75
2024/02/09 10:46:28;;;;;;;8.65;3.17;;;;;;;28.06;28.25;96420.84;4993817;28;20504;-76
2024/02/09 10:48:59;;;;;;;6.03;2.70;;;;;;;28.71;27.09;96402.56;4980575;28;20033;-75
2024/02/09 10:51:28;;;;;;;5.22;3.05;;;;;;;28.91;27.40;96392.06;4997550;28;20098;-74
2024/02/09 10:54:29;;;;;;;6.95;3.00;;;;;;;28.73;26.80;96384.72;4997019;28;20033;-74
2024/02/09 10:56:55;;;;;;;8.95;3.45;;;;;;;28.04;27.48;96379.81;4987678;28;20473;-75
2024/02/09 10:59:22;;;;;;;6.25;3.20;;;;;;;28.71;27.25;96386.88;4977446;28;20025;-75
2024/02/09 11:01:48;;;;;;;5.18;3.17;;;;;;;28.40;27.18;96392.63;4993835;28;20046;-75
2024/02/09 11:04:15;;;;;;;6.78;3.10;;;;;;;27.66;27.73;96388.31;4982968;28;20022;-76
2024/02/09 11:06:41;;;;;;;4.78;3.28;;;;;;;27.37;28.17;96398.16;4986048;28;20497;-76
2024/02/09 11:09:09;;;;;;;8.38;3.38;;;;;;;26.83;28.66;96398.91;4997244;28;20438;-76
2024/02/09 11:11:36;;;;;;;6.03;3.20;;;;;;;25.42;30.22;96392.91;5005370;28;20489;-76
2024/02/09 11:14:09;;;;;;;9.98;3.88;;;;;;;24.89;31.07;96403.16;5010168;28;20104;-76
2024/02/09 11:16:43;;;;;;;5.22;2.80;;;;;;;23.34;31.56;96396.84;4996626;28;20057;-75
2024/02/09 11:19:16;;;;;;;9.30;2.85;;;;;;;23.62;31.53;96399.53;4986958;28;20087;-76
2024/02/09 11:21:49;;;;;;;8.05;5.85;;;;;;;23.21;31.91;96396.78;4983444;28;20413;-75
2024/02/09 11:24:16;;;;;;;7.35;3.30;;;;;;;22.72;31.76;96394.16;4999021;28;20032;-76
2024/02/09 11:26:47;;;;;;;7.55;3.80;;;;;;;22.22;31.86;96395.16;4998793;28;20036;-77
2024/02/09 11:29:13;;;;;;;6.90;3.00;;;;;;;22.48;31.78;96392.69;4980510;28;20515;-75
2024/02/09 11:31:39;;;;;;;8.32;3.33;;;;;;;21.95;33.89;96394.06;5020355;28;20030;-75
2024/02/09 11:34:05;;;;;;;7.60;3.65;;;;;;;21.38;35.21;96402.16;5001221;28;20044;-76
2024/02/09 11:36:31;;;;;;;6.68;3.55;;;;;;;21.39;35.67;96405.72;4993542;28;20034;-75
2024/02/09 11:38:57;;;;;;;9.07;4.63;;;;;;;21.59;35.54;96407.66;5026179;28;20059;-75
2024/02/09 11:41:25;;;;;;;11.15;3.20;;;;;;;20.94;36.16;96393.16;4993988;28;20465;-75
2024/02/09 11:43:51;;;;;;;10.13;3.10;;;;;;;21.04;35.95;96405.44;4993229;28;20032;-75
2024/02/09 11:46:19;;;;;;;7.20;3.08;;;;;;;21.07;35.67;96405.06;4984864;28;20378;-76
2024/02/09 11:48:46;;;;;;;10.82;3.45;;;;;;;20.96;35.76;96391.94;5008956;28;20512;-75
2024/02/09 11:51:20;;;;;;;4.13;2.75;;;;;;;20.43;36.00;96375.84;5012425;28;20021;-76
2024/02/09 11:53:49;;;;;;;12.48;4.45;;;;;;;20.18;36.75;96396.13;4996241;28;20378;-75
2024/02/09 11:56:15;;;;;;;7.03;3.42;;;;;;;20.69;36.51;96392.59;5011319;28;20021;-74
2024/02/09 11:58:41;;;;;;;7.85;3.22;;;;;;;20.80;35.69;96391.28;4993536;28;20061;-75
2024/02/09 12:01:08;;;;;;;11.75;4.28;;;;;;;20.85;35.31;96389.72;5012177;28;20413;-75
2024/02/09 12:03:34;;;;;;;6.95;3.28;;;;;;;20.97;34.86;96382.78;5012269;28;20104;-75
2024/02/09 12:06:02;;;;;;;5.13;2.90;;;;;;;20.95;34.75;96389.41;5006977;28;20117;-75
2024/02/09 12:08:30;;;;;;;6.15;3.83;;;;;;;21.07;35.10;96394.19;5012100;28;20065;-75
2024/02/09 12:10:58;;;;;;;10.02;3.20;;;;;;;21.53;34.91;96391.28;4995965;28;20039;-76
2024/02/09 12:13:24;;;;;;;7.60;3.95;;;;;;;22.32;34.08;96400.28;5012240;28;20030;-75
2024/02/09 12:15:50;;;;;;;11.48;4.88;;;;;;;22.31;34.40;96399.44;5012619;28;20432;-75
2024/02/09 12:18:16;;;;;;;14.10;5.82;;;;;;;22.04;34.88;96395.63;5012148;28;20373;-75
2024/02/09 12:20:43;;;;;;;8.55;4.10;;;;;;;21.59;35.37;96388.59;5024179;28;20101;-75
2024/02/09 12:23:09;;;;;;;9.13;4.22;;;;;;;21.38;35.81;96385.84;4978388;28;20109;-74
2024/02/09 12:25:38;;;;;;;14.98;7.10;;;;;;;21.01;36.20;96394.13;5012373;28;20472;-71
2024/02/09 12:28:10;;;;;;;20.67;8.63;;;;;;;20.56;37.04;96395.09;5005366;28;20029;-74
2024/02/09 12:30:36;;;;;;;11.77;6.20;;;;;;;20.42;37.36;96402.22;4990173;28;20033;-73
2024/02/09 12:33:04;;;;;;;10.50;5.13;;;;;;;20.35;38.02;96398.53;4981462;28;20415;-74
2024/02/09 12:35:30;;;;;;;7.80;3.78;;;;;;;20.44;37.22;96396.56;5014492;28;20053;-74
2024/02/09 12:37:59;;;;;;;11.30;5.63;;;;;;;20.50;37.41;96393.13;4987649;28;20565;-75
2024/02/09 12:40:25;;;;;;;9.20;4.70;;;;;;;21.28;35.95;96407.06;5027114;28;20035;-75
2024/02/09 12:42:53;;;;;;;8.35;3.67;;;;;;;21.49;35.34;96414.44;5012102;28;20033;-75
2024/02/09 12:45:25;;;;;;;5.57;3.75;;;;;;;21.51;35.54;96405.06;4995547;28;20481;-75
2024/02/09 12:47:51;;;;;;;15.88;6.97;;;;;;;22.06;35.31;96414.50;5012824;28;20029;-75
2024/02/09 12:50:20;;;;;;;12.95;4.88;;;;;;;23.29;33.93;96401.25;4993428;28;20049;-75
2024/02/09 12:52:48;;;;;;;8.40;3.50;;;;;;;24.22;31.95;96390.47;5000381;28;20107;-76
2024/02/09 12:55:15;;;;;;;8.13;4.07;;;;;;;24.71;31.19;96388.19;4994020;28;20177;-75
2024/02/09 12:57:41;;;;;;;9.25;3.88;;;;;;;24.99;31.21;96385.22;4993152;28;20508;-75
2024/02/09 13:00:11;;;;;;;10.52;4.50;;;;;;;25.49;30.50;96393.78;4992060;28;20026;-75
2024/02/09 13:02:36;;;;;;;11.02;3.70;;;;;;;25.84;29.60;96371.25;5019131;28;20061;-74
2024/02/09 13:05:02;;;;;;;7.95;4.05;;;;;;;26.14;29.91;96377.00;5011875;28;20022;-74
2024/02/09 13:07:28;;;;;;;11.82;4.07;;;;;;;26.61;29.52;96372.06;5029865;28;20025;-75
2024/02/09 13:09:57;;;;;;;6.97;2.80;;;;;;;26.49;28.11;96354.66;5006373;28;20071;-75
2024/02/09 13:12:23;;;;;;;7.28;3.28;;;;;;;25.66;28.82;96362.09;4988124;28;20136;-76